Time;durP1;ratioP1;P1;durP2;ratioP2;P2;SDS_P1;SDS_P2;PMS_P1;PMS_P2;Temp;Humidity;BMP_temperature;BMP_pressure;BME280_temperature;BME280_humidity;BME280_pressure;Samples;Min_cycle;Max_cycle;Signal;HPM_P1;HPM_P2
2021/12/29 00:02:05;;;;;;;;;;;;;;;11.97;51.25;98907.44;4920482;28;118942;-57
2021/12/29 00:04:31;;;;;;;;;;;;;;;11.97;51.38;98907.44;4920512;28;127417;-57
2021/12/29 00:06:58;;;;;;;;;;;;;;;11.97;51.35;98907.44;4921204;28;99583;-57
2021/12/29 00:09:24;;;;;;;;;;;;;;;11.97;51.30;98903.94;4921167;28;120979;-64
2021/12/29 00:11:51;;;;;;;;;;;;;;;11.97;51.03;98912.84;4921445;28;98226;-57
2021/12/29 00:14:17;;;;;;;;;;;;;;;11.97;51.12;98903.94;4920461;28;98259;-57
2021/12/29 00:16:43;;;;;;;;;;;;;;;11.97;51.37;98912.84;4920693;28;99033;-64
2021/12/29 00:19:08;;;;;;;;;;;;;;;11.98;51.07;98916.34;4926297;28;98656;-65
2021/12/29 00:21:35;;;;;;;;;;;;;;;11.98;51.09;98911.72;4941161;28;98090;-63
2021/12/29 00:24:02;;;;;;;;;;;;;;;12.00;51.46;98916.84;4932232;28;98107;-58
2021/12/29 00:26:28;;;;;;;;;;;;;;;12.00;51.53;98916.84;4924283;28;98184;-57
2021/12/29 00:28:58;;;;;;;;;;;;;;;11.99;51.59;98926.84;4931577;28;97768;-57
2021/12/29 00:31:25;;;;;;;;;;;;;;;12.00;51.39;98924.94;4905152;28;98019;-64
2021/12/29 00:33:51;;;;;;;;;;;;;;;12.01;51.27;98934.63;4903324;28;105922;-64
2021/12/29 00:36:17;;;;;;;;;;;;;;;12.01;51.36;98934.63;4941224;28;122814;-64
2021/12/29 00:38:43;;;;;;;;;;;;;;;12.01;51.36;98931.91;4942239;28;128143;-65
2021/12/29 00:41:09;;;;;;;;;;;;;;;12.01;51.41;98940.03;4944528;28;97800;-64
2021/12/29 00:43:35;;;;;;;;;;;;;;;12.02;51.51;98941.59;4940324;28;128013;-64
2021/12/29 00:46:01;;;;;;;;;;;;;;;12.02;51.49;98947.81;4942276;28;126277;-64
2021/12/29 00:48:35;;;;;;;;;;;;;;;12.02;51.48;98950.53;4942527;28;127822;-57
2021/12/29 00:51:01;;;;;;;;;;;;;;;12.01;51.49;98957.00;4941927;28;98803;-57
2021/12/29 00:53:27;;;;;;;;;;;;;;;12.03;51.42;98956.72;4923580;28;106749;-57
2021/12/29 00:55:53;;;;;;;;;;;;;;;12.02;51.71;98957.81;4922513;28;128647;-64
2021/12/29 00:58:19;;;;;;;;;;;;;;;12.01;51.59;98954.31;4924521;28;98028;-65
2021/12/29 01:00:45;;;;;;;;;;;;;;;12.02;51.59;98955.09;4922685;28;115426;-57
2021/12/29 01:03:11;;;;;;;;;;;;;;;12.00;51.64;98963.53;4922384;28;128758;-63
2021/12/29 01:05:37;;;;;;;;;;;;;;;11.99;51.42;98969.25;4929008;28;98862;-57
2021/12/29 01:08:03;;;;;;;;;;;;;;;11.98;51.42;98960.34;4942314;28;118255;-57
2021/12/29 01:10:29;;;;;;;;;;;;;;;11.99;51.68;98970.06;4942011;28;109415;-57
2021/12/29 01:13:01;;;;;;;;;;;;;;;11.98;51.46;98979.22;4942025;28;127717;-58
2021/12/29 01:15:47;;;;;;;;;;;;;;;11.98;51.60;98975.75;4942694;28;99481;-64
2021/12/29 01:18:13;;;;;;;;;;;;;;;11.97;51.46;98985.75;4941608;28;98717;-57
2021/12/29 01:20:39;;;;;;;;;;;;;;;11.97;51.67;98987.66;4941755;28;118742;-64
2021/12/29 01:23:05;;;;;;;;;;;;;;;11.98;51.42;98997.34;4942005;28;128980;-57
2021/12/29 01:25:30;;;;;;;;;;;;;;;11.97;51.71;98993.06;4941990;28;127304;-57
2021/12/29 01:27:57;;;;;;;;;;;;;;;11.96;51.61;99000.38;4941716;28;128586;-57
2021/12/29 01:30:23;;;;;;;;;;;;;;;11.97;51.46;98995.75;4943904;28;97965;-57
2021/12/29 01:32:49;;;;;;;;;;;;;;;11.96;51.53;98994.97;4942653;28;97810;-57
2021/12/29 01:35:14;;;;;;;;;;;;;;;11.96;51.73;98999.56;4932014;28;106963;-64
2021/12/29 01:37:40;;;;;;;;;;;;;;;11.96;51.53;99000.38;4921794;28;127383;-64
2021/12/29 01:40:12;;;;;;;;;;;;;;;11.95;51.57;99004.19;4923802;28;98301;-64
2021/12/29 01:42:38;;;;;;;;;;;;;;;11.96;51.63;99013.88;4922624;28;99164;-64
2021/12/29 01:45:04;;;;;;;;;;;;;;;11.96;51.45;99000.38;4930550;28;125205;-57
2021/12/29 01:47:31;;;;;;;;;;;;;;;11.96;51.78;99004.97;4922408;28;98076;-57
2021/12/29 01:49:59;;;;;;;;;;;;;;;11.94;51.81;99013.38;4930707;28;111756;-64
2021/12/29 01:52:29;;;;;;;;;;;;;;;11.96;51.50;99015.78;4940874;28;98717;-63
2021/12/29 01:54:55;;;;;;;;;;;;;;;11.96;51.69;99015.78;4942600;28;98455;-57
2021/12/29 01:57:21;;;;;;;;;;;;;;;11.96;51.65;99016.56;4926577;28;98213;-57
2021/12/29 01:59:47;;;;;;;;;;;;;;;11.97;51.55;99022.75;4923225;28;108339;-66
2021/12/29 02:02:14;;;;;;;;;;;;;;;11.96;51.81;99027.38;4921748;28;128108;-57
2021/12/29 02:04:41;;;;;;;;;;;;;;;11.95;51.64;99019.59;4934406;28;98651;-57
2021/12/29 02:07:07;;;;;;;;;;;;;;;11.97;51.70;99020.06;4922034;28;98485;-58
2021/12/29 02:09:33;;;;;;;;;;;;;;;11.96;51.68;99030.06;4923175;28;98099;-57
2021/12/29 02:11:59;;;;;;;;;;;;;;;11.98;51.54;99037.84;4921978;28;128277;-57
2021/12/29 02:14:25;;;;;;;;;;;;;;;11.99;51.68;99034.84;4922782;28;127991;-57
2021/12/29 02:16:51;;;;;;;;;;;;;;;11.99;51.69;99031.38;4922195;28;98311;-58
2021/12/29 02:19:18;;;;;;;;;;;;;;;11.99;51.43;99037.56;4923768;28;97873;-58
2021/12/29 02:21:51;;;;;;;;;;;;;;;11.99;51.78;99034.06;4922570;28;99229;-64
2021/12/29 02:24:19;;;;;;;;;;;;;;;12.01;51.66;99043.44;4921836;28;98416;-64
2021/12/29 02:26:45;;;;;;;;;;;;;;;12.00;51.53;99039.16;4921789;28;97863;-57
2021/12/29 02:29:13;;;;;;;;;;;;;;;12.00;51.99;99043.75;4923559;28;98135;-57
2021/12/29 02:31:39;;;;;;;;;;;;;;;12.00;51.67;99046.44;4922384;28;98922;-64
2021/12/29 02:34:07;;;;;;;;;;;;;;;12.00;51.58;99057.25;4938134;28;98152;-64
2021/12/29 02:36:33;;;;;;;;;;;;;;;11.98;51.68;99048.66;4940993;28;97970;-63
2021/12/29 02:39:00;;;;;;;;;;;;;;;11.96;51.71;99046.28;4940344;28;116764;-57
2021/12/29 02:41:27;;;;;;;;;;;;;;;11.96;51.70;99046.28;4942062;28;98152;-57
2021/12/29 02:43:59;;;;;;;;;;;;;;;11.97;51.85;99047.06;4943027;28;98796;-57
2021/12/29 02:46:25;;;;;;;;;;;;;;;11.96;51.58;99051.69;4920168;28;97987;-64
2021/12/29 02:48:56;;;;;;;;;;;;;;;11.96;51.80;99051.69;4941168;28;108665;-64
2021/12/29 02:51:22;;;;;;;;;;;;;;;11.94;51.65;99051.19;4941378;28;98943;-57
2021/12/29 02:53:48;;;;;;;;;;;;;;;11.94;51.73;99061.97;4921047;28;128649;-64
2021/12/29 02:56:14;;;;;;;;;;;;;;;11.92;51.72;99052.63;4939033;28;129373;-64
2021/12/29 02:58:40;;;;;;;;;;;;;;;11.91;51.66;99065.31;4932357;28;117790;-57
2021/12/29 03:01:11;;;;;;;;;;;;;;;11.90;51.50;99069.09;4921136;28;127923;-63
2021/12/29 03:03:37;;;;;;;;;;;;;;;11.89;51.68;99064.81;4920688;28;113604;-63
2021/12/29 03:06:05;;;;;;;;;;;;;;;11.88;51.72;99074.03;4925166;28;119756;-57
2021/12/29 03:08:31;;;;;;;;;;;;;;;11.86;51.54;99070.03;4929250;28;97848;-57
2021/12/29 03:10:57;;;;;;;;;;;;;;;11.87;51.61;99071.63;4921628;28;115843;-57
2021/12/29 03:13:24;;;;;;;;;;;;;;;11.86;51.62;99070.03;4922260;28;98035;-57
2021/12/29 03:15:50;;;;;;;;;;;;;;;11.87;51.72;99068.91;4921844;28;98046;-63
2021/12/29 03:18:16;;;;;;;;;;;;;;;11.87;51.71;99068.91;4921221;28;97934;-65
2021/12/29 03:20:42;;;;;;;;;;;;;;;11.88;51.78;99070.53;4921968;28;98419;-64
2021/12/29 03:23:08;;;;;;;;;;;;;;;11.87;51.55;99079.72;4926826;28;103216;-57
2021/12/29 03:25:34;;;;;;;;;;;;;;;11.89;51.62;99085.63;4927070;28;127908;-57
2021/12/29 03:28:00;;;;;;;;;;;;;;;11.89;51.86;99082.94;4939443;28;109611;-64
2021/12/29 03:30:30;;;;;;;;;;;;;;;11.90;51.68;99089.91;4926312;28;105561;-57
2021/12/29 03:33:05;;;;;;;;;;;;;;;11.89;51.75;99097.22;4921630;28;98712;-57
2021/12/29 03:35:36;;;;;;;;;;;;;;;11.91;51.61;99099.63;4922380;28;97991;-64
2021/12/29 03:38:03;;;;;;;;;;;;;;;11.91;51.66;99099.63;4920859;28;98458;-57
2021/12/29 03:40:29;;;;;;;;;;;;;;;11.90;51.36;99101.50;4933008;28;114276;-64
2021/12/29 03:42:55;;;;;;;;;;;;;;;11.91;51.58;99105.81;4940919;28;98465;-57
2021/12/29 03:45:21;;;;;;;;;;;;;;;11.92;51.30;99117.41;4933164;28;122545;-64
2021/12/29 03:47:47;;;;;;;;;;;;;;;11.93;51.73;99119.00;4940562;28;104795;-64
2021/12/29 03:50:13;;;;;;;;;;;;;;;11.94;51.42;99120.59;4929411;28;126429;-61
2021/12/29 03:52:39;;;;;;;;;;;;;;;11.94;51.58;99118.69;4920770;28;128880;-64
2021/12/29 03:55:05;;;;;;;;;;;;;;;11.95;51.61;99117.59;4931514;28;98386;-57
2021/12/29 03:57:31;;;;;;;;;;;;;;;11.96;51.54;99121.09;4942526;28;97981;-57
2021/12/29 03:59:57;;;;;;;;;;;;;;;11.96;51.75;99119.19;4942740;28;129499;-64
2021/12/29 04:02:23;;;;;;;;;;;;;;;11.97;51.43;99134.28;4943518;28;125506;-57
2021/12/29 04:04:48;;;;;;;;;;;;;;;11.98;51.66;99140.47;4935775;28;127410;-57
2021/12/29 04:07:14;;;;;;;;;;;;;;;11.98;51.44;99145.88;4924262;28;118041;-57
2021/12/29 04:09:40;;;;;;;;;;;;;;;11.98;51.47;99149.38;4924978;28;128063;-64
2021/12/29 04:12:07;;;;;;;;;;;;;;;11.98;51.62;99153.97;4923667;28;128986;-57
2021/12/29 04:14:32;;;;;;;;;;;;;;;11.97;51.17;99157.78;4924125;28;98067;-64
2021/12/29 04:17:07;;;;;;;;;;;;;;;11.98;51.67;99170.97;4923971;28;117476;-65
2021/12/29 04:20:54;;;;;;;;;;;;;;;12.00;51.53;99170.69;4936713;28;98790;-64
2021/12/29 04:22:26;;;;;;;;;;;;;;;11.99;51.57;99166.38;4926849;28;99231;-64
2021/12/29 04:24:52;;;;;;;;;;;;;;;12.00;51.59;99173.38;4943413;28;113668;-57
2021/12/29 04:27:21;;;;;;;;;;;;;;;12.00;51.63;99179.56;4944018;28;97943;-58
2021/12/29 04:29:47;;;;;;;;;;;;;;;12.00;51.42;99176.09;4925966;28;98884;-65
2021/12/29 04:32:13;;;;;;;;;;;;;;;12.01;51.68;99178.47;4923296;28;128084;-57
2021/12/29 04:34:38;;;;;;;;;;;;;;;12.03;51.72;99183.56;4923304;28;127622;-57
2021/12/29 04:37:04;;;;;;;;;;;;;;;12.02;51.49;99190.88;4922658;28;118226;-58
2021/12/29 04:39:30;;;;;;;;;;;;;;;12.02;51.63;99193.59;4923295;28;126580;-57
2021/12/29 04:41:56;;;;;;;;;;;;;;;12.04;51.43;99193.25;4922830;28;128724;-57
2021/12/29 04:44:22;;;;;;;;;;;;;;;12.04;51.51;99202.16;4922771;28;127480;-64
2021/12/29 04:46:48;;;;;;;;;;;;;;;12.06;51.69;99206.44;4924525;28;117582;-64
2021/12/29 04:49:21;;;;;;;;;;;;;;;12.07;51.49;99197.25;4923492;28;98800;-57
2021/12/29 04:51:52;;;;;;;;;;;;;;;12.07;51.47;99195.34;4924818;28;98965;-57
2021/12/29 04:54:17;;;;;;;;;;;;;;;12.08;51.58;99207.75;4924287;28;99011;-58
2021/12/29 04:56:44;;;;;;;;;;;;;;;12.10;51.65;99212.84;4923890;28;117386;-57
2021/12/29 04:59:10;;;;;;;;;;;;;;;12.11;51.75;99214.44;4922818;28;104749;-64
2021/12/29 05:01:36;;;;;;;;;;;;;;;12.11;51.52;99212.53;4933842;28;97826;-57
2021/12/29 05:04:02;;;;;;;;;;;;;;;12.12;51.58;99224.16;4907274;28;126887;-57
2021/12/29 05:09:12;;;;;;;;;;;;;;;12.14;51.56;99225.41;4922295;28;97987;-64
2021/12/29 05:11:38;;;;;;;;;;;;;;;12.14;51.63;99225.41;4923237;28;125823;-57
2021/12/29 05:14:04;;;;;;;;;;;;;;;12.15;51.76;99240.53;4923055;28;127315;-64
2021/12/29 05:16:30;;;;;;;;;;;;;;;12.16;51.62;99247.53;4933048;28;98427;-64
2021/12/29 05:18:56;;;;;;;;;;;;;;;12.17;51.43;99251.81;4929165;28;127269;-64
2021/12/29 05:21:22;;;;;;;;;;;;;;;12.18;51.66;99249.91;4943495;28;98315;-64
2021/12/29 05:23:48;;;;;;;;;;;;;;;12.18;51.54;99261.53;4942698;28;105915;-57
2021/12/29 05:26:14;;;;;;;;;;;;;;;12.18;51.75;99256.13;4942953;28;98067;-58
2021/12/29 05:28:40;;;;;;;;;;;;;;;12.19;51.57;99263.13;4939321;28;128846;-64
2021/12/29 05:31:06;;;;;;;;;;;;;;;12.21;51.55;99265.50;4941570;28;127922;-58
2021/12/29 05:33:32;;;;;;;;;;;;;;;12.20;51.75;99262.03;4941198;28;128080;-56
2021/12/29 05:35:58;;;;;;;;;;;;;;;12.21;51.58;99269.00;4942489;28;117796;-57
2021/12/29 05:38:24;;;;;;;;;;;;;;;12.22;51.71;99275.22;4942360;28;129213;-57
2021/12/29 05:40:51;;;;;;;;;;;;;;;12.22;51.50;99277.91;4927209;28;98527;-63
2021/12/29 05:43:17;;;;;;;;;;;;;;;12.23;51.86;99282.22;4922633;28;97802;-64
2021/12/29 05:45:43;;;;;;;;;;;;;;;12.23;51.61;99279.53;4924363;28;98002;-57
2021/12/29 05:48:09;;;;;;;;;;;;;;;12.24;51.81;99278.41;4938211;28;128100;-64
2021/12/29 05:50:35;;;;;;;;;;;;;;;12.23;51.81;99272.22;4941358;28;127361;-64
2021/12/29 05:53:01;;;;;;;;;;;;;;;12.24;51.96;99273.00;4941388;28;127681;-64
2021/12/29 05:55:27;;;;;;;;;;;;;;;12.24;51.77;99290.00;4939839;28;117628;-64
2021/12/29 05:57:53;;;;;;;;;;;;;;;12.25;51.70;99297.00;4921265;28;118408;-64
2021/12/29 06:00:20;;;;;;;;;;;;;;;12.25;51.61;99298.91;4922187;28;128689;-64
2021/12/29 06:02:46;;;;;;;;;;;;;;;12.25;51.70;99297.00;4921661;28;116036;-66
2021/12/29 06:05:12;;;;;;;;;;;;;;;12.25;51.92;99299.72;4930387;28;116752;-64
2021/12/29 06:07:38;;;;;;;;;;;;;;;12.25;51.65;99307.81;4942208;28;118184;-64
2021/12/29 06:10:04;;;;;;;;;;;;;;;12.26;51.75;99300.50;4940872;28;123256;-64
2021/12/29 06:12:30;;;;;;;;;;;;;;;12.25;51.71;99312.44;4941449;28;108295;-64
2021/12/29 06:14:56;;;;;;;;;;;;;;;12.24;51.84;99316.25;4940655;28;110919;-64
2021/12/29 06:17:22;;;;;;;;;;;;;;;12.24;51.96;99324.34;4940550;28;121424;-64
2021/12/29 06:19:48;;;;;;;;;;;;;;;12.24;51.94;99327.84;4941801;28;104749;-64
2021/12/29 06:22:14;;;;;;;;;;;;;;;12.24;51.72;99329.75;4939894;28;126650;-64
2021/12/29 06:24:42;;;;;;;;;;;;;;;12.24;51.80;99335.16;4939266;28;115949;-64
2021/12/29 06:27:08;;;;;;;;;;;;;;;12.24;51.63;99337.84;4941173;28;119424;-64
2021/12/29 06:29:34;;;;;;;;;;;;;;;12.23;51.69;99338.97;4940851;28;120494;-64
2021/12/29 06:32:00;;;;;;;;;;;;;;;12.23;51.88;99347.88;4939940;28;128225;-64
2021/12/29 06:34:26;;;;;;;;;;;;;;;12.24;51.94;99349.47;4924419;28;98323;-64
2021/12/29 06:36:53;;;;;;;;;;;;;;;12.23;51.92;99349.78;4922254;28;104618;-64
2021/12/29 06:39:19;;;;;;;;;;;;;;;12.24;51.78;99354.84;4922894;28;115034;-64
2021/12/29 06:41:45;;;;;;;;;;;;;;;12.24;51.72;99362.16;4921843;28;127942;-64
2021/12/29 06:44:11;;;;;;;;;;;;;;;12.24;51.62;99371.06;4934489;28;97776;-64
2021/12/29 06:46:37;;;;;;;;;;;;;;;12.25;51.93;99372.66;4938468;28;127828;-64
2021/12/29 06:49:03;;;;;;;;;;;;;;;12.25;51.88;99378.06;4940322;28;98746;-64
2021/12/29 06:51:29;;;;;;;;;;;;;;;12.26;51.81;99386.97;4921611;28;128412;-57
2021/12/29 06:53:55;;;;;;;;;;;;;;;12.25;51.83;99383.47;4920927;28;117488;-57
2021/12/29 06:56:21;;;;;;;;;;;;;;;12.26;51.59;99385.09;4921747;28;128055;-64
2021/12/29 06:58:46;;;;;;;;;;;;;;;12.26;51.87;99393.19;4921057;28;126055;-57
2021/12/29 07:01:13;;;;;;;;;;;;;;;12.27;51.90;99394.78;4926213;28;126852;-64
2021/12/29 07:03:39;;;;;;;;;;;;;;;12.28;51.95;99400.97;4933744;28;98150;-64
2021/12/29 07:06:05;;;;;;;;;;;;;;;12.28;51.77;99406.38;4939791;28;98907;-64
2021/12/29 07:08:31;;;;;;;;;;;;;;;12.28;51.90;99407.19;4940117;28;128539;-57
2021/12/29 07:10:57;;;;;;;;;;;;;;;12.29;51.84;99408.78;4944894;28;126708;-64
2021/12/29 07:13:23;;;;;;;;;;;;;;;12.31;51.97;99410.41;4941125;28;118696;-57
2021/12/29 07:15:49;;;;;;;;;;;;;;;12.31;51.86;99419.31;4939270;28;115306;-64
2021/12/29 07:18:15;;;;;;;;;;;;;;;12.31;52.02;99416.59;4939825;28;127021;-64
2021/12/29 07:20:42;;;;;;;;;;;;;;;12.32;51.78;99422.78;4936934;28;101561;-57
2021/12/29 07:23:08;;;;;;;;;;;;;;;12.33;51.78;99430.59;4941379;28;98208;-65
2021/12/29 07:25:34;;;;;;;;;;;;;;;12.35;51.76;99435.72;4933723;28;125534;-64
2021/12/29 07:28:00;;;;;;;;;;;;;;;12.36;52.10;99443.50;4921145;28;128820;-58
2021/12/29 07:30:26;;;;;;;;;;;;;;;12.36;51.86;99440.78;4926764;28;98547;-65
2021/12/29 07:32:52;;;;;;;;;;;;;;;12.38;51.79;99435.06;4937895;28;111263;-64
2021/12/29 07:35:18;;;;;;;;;;;;;;;12.37;51.72;99428.88;4940280;28;128149;-64
2021/12/29 07:37:44;;;;;;;;;;;;;;;12.39;51.73;99434.00;4941051;28;98885;-57
2021/12/29 07:40:10;;;;;;;;;;;;;;;12.40;51.71;99441.00;4935884;28;125691;-57
2021/12/29 07:42:37;;;;;;;;;;;;;;;12.39;51.90;99442.91;4934976;28;98012;-64
2021/12/29 07:45:06;;;;;;;;;;;;;;;12.42;51.84;99444.19;4936719;28;99270;-57
2021/12/29 07:47:33;;;;;;;;;;;;;;;12.43;51.78;99445.78;4925052;28;98830;-57
2021/12/29 07:49:59;;;;;;;;;;;;;;;12.43;51.61;99451.19;4917563;28;98309;-57
2021/12/29 07:52:25;;;;;;;;;;;;;;;12.43;51.77;99465.50;4917873;28;99514;-57
2021/12/29 07:54:51;;;;;;;;;;;;;;;12.44;51.86;99469.00;4919395;28;128108;-57
2021/12/29 07:57:16;;;;;;;;;;;;;;;12.44;51.87;99464.41;4919843;28;127639;-57
2021/12/29 07:59:42;;;;;;;;;;;;;;;12.47;51.84;99473.81;4915918;28;127166;-57
2021/12/29 08:02:15;;;;;;;;;;;;;;;12.50;51.92;99475.91;4917910;28;98275;-57
2021/12/29 08:04:41;;;;;;;;;;;;;;;12.51;51.66;99470.19;4915345;28;110762;-57
2021/12/29 08:07:07;;;;;;;;;;;;;;;12.53;51.91;99481.50;4916564;28;128382;-57
2021/12/29 08:09:33;;;;;;;;;;;;;;;12.55;51.65;99480.41;4915030;28;122224;-57
2021/12/29 08:11:59;;;;;;;;;;;;;;;12.57;51.78;99484.38;4917248;28;116559;-57
2021/12/29 08:14:25;;;;;;;;;;;;;;;12.57;51.83;99487.09;4919466;28;127364;-57
2021/12/29 08:16:51;;;;;;;;;;;;;;;12.60;51.66;99489.19;4922165;28;128782;-57
2021/12/29 08:19:17;;;;;;;;;;;;;;;12.62;51.85;99488.91;4915682;28;128388;-57
2021/12/29 08:21:43;;;;;;;;;;;;;;;12.63;51.59;99507.50;4924459;28;97971;-57
2021/12/29 08:24:09;;;;;;;;;;;;;;;12.66;51.70;99509.63;4914931;28;98563;-57
2021/12/29 08:26:35;;;;;;;;;;;;;;;12.70;51.56;99512.53;4917039;28;128115;-57
2021/12/29 08:29:01;;;;;;;;;;;;;;;12.71;51.69;99514.91;4915733;28;126994;-57
2021/12/29 08:31:27;;;;;;;;;;;;;;;12.74;51.67;99519.72;4918881;28;99085;-57
2021/12/29 08:33:54;;;;;;;;;;;;;;;12.76;51.77;99519.41;4916647;28;98319;-57
2021/12/29 08:36:20;;;;;;;;;;;;;;;12.81;51.50;99521.19;4916122;28;120855;-57
2021/12/29 08:38:45;;;;;;;;;;;;;;;12.84;51.63;99520.59;4916157;28;98743;-57
2021/12/29 08:41:12;;;;;;;;;;;;;;;12.88;51.59;99521.56;4918568;28;98641;-57
2021/12/29 08:43:38;;;;;;;;;;;;;;;12.91;51.67;99526.38;4917874;28;103436;-57
2021/12/29 08:46:04;;;;;;;;;;;;;;;12.93;51.65;99530.38;4925588;28;99537;-57
2021/12/29 08:48:30;;;;;;;;;;;;;;;12.96;51.49;99535.16;4920398;28;99748;-57
2021/12/29 08:50:59;;;;;;;;;;;;;;;13.00;51.47;99544.25;4919143;28;118804;-57
2021/12/29 08:53:25;;;;;;;;;;;;;;;13.03;51.46;99537.44;4920290;28;98940;-57
2021/12/29 08:55:52;;;;;;;;;;;;;;;13.05;51.63;99540.66;4919438;28;98936;-57
2021/12/29 08:58:18;;;;;;;;;;;;;;;13.08;51.47;99558.19;4919406;28;98461;-58
2021/12/29 09:00:44;;;;;;;;;;;;;;;13.10;51.52;99564.91;4922802;28;97823;-57
2021/12/29 09:03:11;;;;;;;;;;;;;;;13.13;51.40;99558.09;4919515;28;98835;-57
2021/12/29 09:05:36;;;;;;;;;;;;;;;13.15;51.50;99561.25;4919373;28;113968;-57
2021/12/29 09:08:03;;;;;;;;;;;;;;;13.17;51.60;99564.47;4919769;28;98316;-57
2021/12/29 09:10:28;;;;;;;;;;;;;;;13.23;51.39;99561.38;4920197;28;107992;-57
2021/12/29 09:12:55;;;;;;;;;;;;;;;13.28;51.42;99576.66;4917530;28;128942;-57
2021/12/29 09:15:21;;;;;;;;;;;;;;;13.31;51.50;99578.78;4920565;28;98966;-57
2021/12/29 09:17:46;;;;;;;;;;;;;;;13.34;51.62;99574.66;4918197;28;119936;-57
2021/12/29 09:20:27;;;;;;;;;;;;;;;13.36;51.55;99580.56;4918691;28;99259;-57
2021/12/29 09:23:03;;;;;;;;;;;;;;;13.38;51.60;99589.97;4920903;28;98174;-57
2021/12/29 09:25:29;;;;;;;;;;;;;;;13.41;51.65;99588.56;4912624;28;98968;-57
2021/12/29 09:27:55;;;;;;;;;;;;;;;13.46;51.50;99594.66;4919126;28;97893;-57
2021/12/29 09:30:22;;;;;;;;;;;;;;;13.49;51.67;99594.06;4918601;28;118864;-57
2021/12/29 09:32:48;;;;;;;;;;;;;;;13.51;51.64;99604.56;4918575;28;121824;-57
2021/12/29 09:35:16;;;;;;;;;;;;;;;13.54;51.74;99608.56;4917596;28;129066;-58
2021/12/29 09:37:43;;;;;;;;;;;;;;;13.58;51.68;99613.06;4918177;28;110259;-57
2021/12/29 09:40:10;;;;;;;;;;;;;;;13.63;51.62;99615.63;4929763;28;98059;-57
2021/12/29 09:42:36;;;;;;;;;;;;;;;13.69;51.50;99603.59;4921184;28;99866;-57
2021/12/29 09:45:02;;;;;;;;;;;;;;;13.81;51.40;99607.66;4918539;28;128967;-57
2021/12/29 09:47:28;;;;;;;;;;;;;;;13.88;51.51;99606.09;4925459;28;118494;-57
2021/12/29 09:49:55;;;;;;;;;;;;;;;14.06;51.37;99606.19;4903832;28;97891;-57
2021/12/29 09:52:21;;;;;;;;;;;;;;;14.27;51.12;99612.69;4919451;28;101079;-57
2021/12/29 09:54:47;;;;;;;;;;;;;;;14.41;51.02;99599.00;4912942;28;100161;-57
2021/12/29 09:57:13;;;;;;;;;;;;;;;14.48;50.83;99604.78;4920678;28;98447;-57
2021/12/29 09:59:39;;;;;;;;;;;;;;;14.55;50.71;99594.31;4918398;28;116788;-57
2021/12/29 10:02:06;;;;;;;;;;;;;;;14.62;50.78;99597.38;4917904;28;120518;-57
2021/12/29 10:04:34;;;;;;;;;;;;;;;14.67;51.17;99597.22;4918907;28;99031;-65
2021/12/29 10:07:19;;;;;;;;;;;;;;;14.68;50.84;99593.38;4922597;28;97937;-65
2021/12/29 10:09:44;;;;;;;;;;;;;;;14.75;50.81;99594.84;4919978;28;112298;-57
2021/12/29 10:12:17;;;;;;;;;;;;;;;14.83;51.19;99594.06;4917613;28;98397;-57
2021/12/29 10:14:47;;;;;;;;;;;;;;;14.86;50.82;99605.09;4926815;28;98535;-57
2021/12/29 10:17:13;;;;;;;;;;;;;;;14.89;51.06;99604.44;4918884;28;120102;-57
2021/12/29 10:19:39;;;;;;;;;;;;;;;14.97;51.26;99605.56;4920847;28;98048;-65
2021/12/29 10:22:05;;;;;;;;;;;;;;;15.05;51.08;99601.25;4919963;28;127823;-64
2021/12/29 10:24:31;;;;;;;;;;;;;;;15.22;50.86;99612.16;4919410;28;107543;-57
2021/12/29 10:26:57;;;;;;;;;;;;;;;15.39;50.50;99601.28;4923545;28;126771;-65
2021/12/29 10:29:23;;;;;;;;;;;;;;;15.51;50.43;99595.22;4919282;28;101881;-57
2021/12/29 10:32:02;;;;;;;;;;;;;;;15.63;50.28;99595.34;4920139;28;98818;-57
2021/12/29 10:34:29;;;;;;;;;;;;;;;15.70;50.65;99587.56;4918354;28;99092;-64
2021/12/29 10:36:59;;;;;;;;;;;;;;;15.72;50.65;99579.09;4925844;28;98394;-66
2021/12/29 10:39:29;;;;;;;;;;;;;;;15.77;50.42;99587.06;4919541;28;97935;-64
2021/12/29 10:42:04;;;;;;;;;;;;;;;15.78;50.88;99583.22;4919499;28;98886;-65
2021/12/29 10:44:34;;;;;;;;;;;;;;;15.81;50.62;99584.50;4921814;28;98333;-64
2021/12/29 10:47:01;;;;;;;;;;;;;;;15.83;50.57;99593.91;4918985;28;97895;-65
2021/12/29 10:49:28;;;;;;;;;;;;;;;15.81;51.09;99589.94;4924608;28;109942;-63
2021/12/29 10:51:57;;;;;;;;;;;;;;;15.78;51.03;99596.81;4918840;28;98538;-64
2021/12/29 10:54:24;;;;;;;;;;;;;;;15.75;51.41;99592.00;4918475;28;98420;-65
2021/12/29 10:57:08;;;;;;;;;;;;;;;15.75;51.23;99589.28;4918986;28;98235;-64
2021/12/29 10:59:37;;;;;;;;;;;;;;;15.76;51.32;99587.38;4916823;28;97934;-65
2021/12/29 11:02:04;;;;;;;;;;;;;;;15.88;50.90;99588.31;4918347;28;100592;-64
2021/12/29 11:04:30;;;;;;;;;;;;;;;16.00;50.89;99592.28;4932171;28;98957;-64
2021/12/29 11:07:01;;;;;;;;;;;;;;;16.10;50.79;99602.81;4924090;28;126577;-64
2021/12/29 11:09:30;;;;;;;;;;;;;;;16.00;50.78;99598.53;4914851;28;97803;-64
2021/12/29 11:11:56;;;;;;;;;;;;;;;16.03;51.06;99606.00;4918304;28;98163;-57
2021/12/29 11:14:28;;;;;;;;;;;;;;;16.05;51.21;99609.22;4918098;28;107980;-57
2021/12/29 11:17:06;;;;;;;;;;;;;;;15.92;51.24;99612.94;4917960;28;98140;-64
2021/12/29 11:19:32;;;;;;;;;;;;;;;15.92;51.15;99611.00;4918207;28;110540;-65
2021/12/29 11:22:25;;;;;;;;;;;;;;;15.94;51.13;99621.56;4918986;28;100455;-65
2021/12/29 11:25:09;;;;;;;;;;;;;;;15.82;51.62;99619.50;4918690;28;98359;-57
2021/12/29 11:27:35;;;;;;;;;;;;;;;15.74;51.93;99627.66;4917254;28;127736;-57
2021/12/29 11:30:06;;;;;;;;;;;;;;;15.70;51.90;99628.28;4917759;28;97786;-57
2021/12/29 11:32:38;;;;;;;;;;;;;;;15.66;51.59;99631.97;4919429;28;99198;-57
2021/12/29 11:35:07;;;;;;;;;;;;;;;15.59;52.04;99631.63;4918248;28;98153;-57
2021/12/29 11:37:33;;;;;;;;;;;;;;;15.52;51.88;99639.47;4919208;28;97863;-64
2021/12/29 11:39:59;;;;;;;;;;;;;;;15.44;52.16;99644.59;4919263;28;107809;-64
2021/12/29 11:42:25;;;;;;;;;;;;;;;15.36;52.52;99642.66;4922963;28;98814;-57
2021/12/29 11:44:51;;;;;;;;;;;;;;;15.27;52.30;99644.56;4917619;28;105892;-64
2021/12/29 11:47:17;;;;;;;;;;;;;;;15.20;52.73;99646.94;4917408;28;98379;-57
2021/12/29 11:49:43;;;;;;;;;;;;;;;15.14;52.48;99645.53;4918543;28;98297;-57
2021/12/29 11:52:09;;;;;;;;;;;;;;;15.11;52.74;99657.78;4918572;28;98843;-57
2021/12/29 11:54:51;;;;;;;;;;;;;;;15.06;52.71;99651.72;4918197;28;98202;-58
2021/12/29 11:57:21;;;;;;;;;;;;;;;15.04;52.46;99645.81;4916496;28;98249;-57
2021/12/29 11:59:47;;;;;;;;;;;;;;;15.02;52.89;99648.06;4917938;28;110636;-57
2021/12/29 12:02:26;;;;;;;;;;;;;;;14.98;52.92;99664.97;4918247;28;98403;-57
2021/12/29 12:05:00;;;;;;;;;;;;;;;14.94;52.55;99660.50;4917363;28;119428;-58
2021/12/29 12:07:26;;;;;;;;;;;;;;;14.91;52.89;99670.03;4917207;28;98284;-57
2021/12/29 12:09:52;;;;;;;;;;;;;;;14.89;52.54;99680.41;4917628;28;116045;-64
2021/12/29 12:12:18;;;;;;;;;;;;;;;14.86;53.05;99674.84;4917769;28;98887;-58
2021/12/29 12:14:48;;;;;;;;;;;;;;;14.83;52.93;99678.97;4918671;28;98686;-64
2021/12/29 12:17:22;;;;;;;;;;;;;;;14.83;53.08;99680.88;4923325;28;98094;-64
2021/12/29 12:20:11;;;;;;;;;;;;;;;14.82;52.86;99682.78;4917829;28;104343;-64
2021/12/29 12:22:51;;;;;;;;;;;;;;;14.82;53.02;99679.28;4915367;28;98414;-57
2021/12/29 12:25:27;;;;;;;;;;;;;;;14.82;52.57;99680.09;4923421;28;113613;-57
2021/12/29 12:28:00;;;;;;;;;;;;;;;14.82;52.66;99677.38;4924992;28;98207;-64
2021/12/29 12:30:27;;;;;;;;;;;;;;;14.86;52.55;99675.63;4921761;28;97870;-64
2021/12/29 12:32:55;;;;;;;;;;;;;;;14.89;52.58;99674.19;4920729;28;98961;-58
2021/12/29 12:35:34;;;;;;;;;;;;;;;14.91;52.50;99670.03;4919801;28;119561;-57
2021/12/29 12:38:22;;;;;;;;;;;;;;;14.94;52.73;99669.41;4919755;28;120869;-58
2021/12/29 12:41:01;;;;;;;;;;;;;;;14.99;52.40;99668.47;4921728;28;98353;-65
2021/12/29 12:43:27;;;;;;;;;;;;;;;15.06;52.55;99665.31;4920082;28;98557;-57
2021/12/29 12:45:53;;;;;;;;;;;;;;;15.06;52.45;99668.81;4917307;28;99792;-57